createdAt,value
2019-03-11T00:00:42.186Z,1006.26
2019-03-11T00:01:42.141Z,1006.35
2019-03-11T00:02:42.135Z,1006.24
2019-03-11T00:03:42.120Z,1006.32
2019-03-11T00:04:42.109Z,1006.25
2019-03-11T00:05:42.112Z,1006.26
2019-03-11T00:06:42.089Z,1006.22
2019-03-11T00:07:42.081Z,1006.24
2019-03-11T00:08:42.068Z,1006.22
2019-03-11T00:09:42.055Z,1006.24
2019-03-11T00:10:42.043Z,1006.24
2019-03-11T00:11:42.050Z,1006.24
2019-03-11T00:12:42.022Z,1006.24
2019-03-11T00:13:42.012Z,1006.31
2019-03-11T00:14:42.000Z,1006.38
2019-03-11T00:15:41.991Z,1006.47
2019-03-11T00:16:41.980Z,1006.42
2019-03-11T00:17:41.981Z,1006.34
2019-03-11T00:18:41.958Z,1006.31
2019-03-11T00:19:41.950Z,1006.33
2019-03-11T00:20:41.936Z,1006.35
2019-03-11T00:21:41.926Z,1006.30
2019-03-11T00:22:41.916Z,1006.27
2019-03-11T00:23:41.915Z,1006.32
2019-03-11T00:24:41.893Z,1006.36
2019-03-11T00:25:41.883Z,1006.36
2019-03-11T00:26:41.873Z,1006.41
2019-03-11T00:27:41.860Z,1006.45
2019-03-11T00:28:41.851Z,1006.35
2019-03-11T00:29:41.850Z,1006.40
2019-03-11T00:30:41.828Z,1006.30
2019-03-11T00:31:41.817Z,1006.31
2019-03-11T00:32:41.806Z,1006.32
2019-03-11T00:33:41.795Z,1006.31
2019-03-11T00:34:41.784Z,1006.24
2019-03-11T00:35:41.786Z,1006.27
2019-03-11T00:36:41.762Z,1006.14
2019-03-11T00:37:41.752Z,1006.28
2019-03-11T00:38:41.740Z,1006.30
2019-03-11T00:39:41.736Z,1006.34
2019-03-11T00:40:41.719Z,1006.29
2019-03-11T00:41:41.719Z,1006.29
2019-03-11T00:42:41.698Z,1006.24
2019-03-11T00:43:41.689Z,1006.29
2019-03-11T00:44:41.677Z,1006.28
2019-03-11T00:45:41.668Z,1006.26
2019-03-11T00:46:41.658Z,1006.29
2019-03-11T00:47:41.656Z,1006.28
2019-03-11T00:48:41.634Z,1006.23
2019-03-11T00:49:41.623Z,1006.26
2019-03-11T00:50:41.613Z,1006.22
2019-03-11T00:51:41.622Z,1006.26
2019-03-11T00:52:41.702Z,1006.23
2019-03-11T00:53:41.594Z,1006.16
2019-03-11T00:54:41.572Z,1006.21
2019-03-11T00:55:41.560Z,1006.20
2019-03-11T00:56:41.550Z,1006.23
2019-03-11T00:57:41.540Z,1006.30
2019-03-11T00:58:41.529Z,1006.28
2019-03-11T00:59:41.529Z,1006.56
2019-03-11T01:00:41.508Z,1006.25
2019-03-11T01:01:41.498Z,1006.54
2019-03-11T01:02:41.487Z,1006.58
2019-03-11T01:03:41.476Z,1006.44
2019-03-11T01:04:41.467Z,1006.57
2019-03-11T01:05:41.466Z,1006.57
2019-03-11T01:06:41.447Z,1006.65
2019-03-11T01:07:41.437Z,1006.70
2019-03-11T01:08:41.426Z,1006.60
2019-03-11T01:09:41.414Z,1006.55
2019-03-11T01:10:41.406Z,1006.57
2019-03-11T01:11:41.406Z,1006.58
2019-03-11T01:12:41.398Z,1006.50
2019-03-11T01:13:41.372Z,1006.59
2019-03-11T01:14:41.365Z,1006.52
2019-03-11T01:15:41.355Z,1006.54
2019-03-11T01:16:41.341Z,1006.54
2019-03-11T01:17:41.347Z,1006.55
2019-03-11T01:18:41.319Z,1006.49
2019-03-11T01:19:41.309Z,1006.47
2019-03-11T01:20:41.299Z,1006.46
2019-03-11T01:21:41.345Z,1006.41
2019-03-11T01:22:41.284Z,1006.43
2019-03-11T01:23:41.289Z,1006.35
2019-03-11T01:24:41.256Z,1006.30
2019-03-11T01:25:41.246Z,1006.33
2019-03-11T01:26:41.236Z,1006.25
2019-03-11T01:27:41.227Z,1006.28
2019-03-11T01:28:41.244Z,1006.31
2019-03-11T01:29:41.214Z,1006.27
2019-03-11T01:30:41.196Z,1006.31
2019-03-11T01:31:41.183Z,1006.25
2019-03-11T01:32:41.173Z,1006.27
2019-03-11T01:33:41.163Z,1006.26
2019-03-11T01:34:41.151Z,1006.23
2019-03-11T01:35:41.153Z,1006.22
2019-03-11T01:36:41.131Z,1006.19
2019-03-11T01:37:41.120Z,1006.21
2019-03-11T01:38:41.110Z,1006.22
2019-03-11T01:39:41.100Z,1006.23
2019-03-11T01:40:41.089Z,1006.23
2019-03-11T01:41:41.090Z,1006.24
2019-03-11T01:42:41.068Z,1006.29
2019-03-11T01:43:41.058Z,1006.31
2019-03-11T01:44:41.050Z,1006.27
2019-03-11T01:45:41.036Z,1006.34
2019-03-11T01:46:41.026Z,1006.36
2019-03-11T01:47:41.030Z,1006.33
2019-03-11T01:48:41.014Z,1006.27
2019-03-11T01:49:40.996Z,1006.31
2019-03-11T01:50:40.989Z,1006.42
2019-03-11T01:51:40.975Z,1006.40
2019-03-11T01:52:40.962Z,1006.40
2019-03-11T01:53:40.965Z,1006.39
2019-03-11T01:54:40.942Z,1006.42
2019-03-11T01:55:40.932Z,1006.44
2019-03-11T01:56:40.922Z,1006.43
2019-03-11T01:57:40.911Z,1006.43
2019-03-11T01:58:40.902Z,1006.42
2019-03-11T01:59:40.900Z,1006.36
2019-03-11T02:00:40.887Z,1006.42
2019-03-11T02:01:40.868Z,1006.46
2019-03-11T02:02:40.859Z,1006.44
2019-03-11T02:03:40.855Z,1006.42
2019-03-11T02:04:40.836Z,1006.39
2019-03-11T02:05:40.842Z,1006.38
2019-03-11T02:06:40.815Z,1006.40
2019-03-11T02:07:40.806Z,1006.38
2019-03-11T02:08:40.798Z,1006.30
2019-03-11T02:09:40.782Z,1006.13
2019-03-11T02:10:40.775Z,1006.20
2019-03-11T02:11:40.773Z,1006.25
2019-03-11T02:12:40.751Z,1006.34
2019-03-11T02:13:40.741Z,1006.33
2019-03-11T02:14:40.729Z,1006.23
2019-03-11T02:15:40.722Z,1006.19
2019-03-11T02:16:40.708Z,1006.20
2019-03-11T02:17:40.718Z,1006.25
2019-03-11T02:18:40.687Z,1006.28
2019-03-11T02:19:40.679Z,1006.29
2019-03-11T02:20:40.668Z,1006.21
2019-03-11T02:21:40.660Z,1006.20
2019-03-11T02:22:40.646Z,1006.20
2019-03-11T02:23:40.647Z,1006.26
2019-03-11T02:24:40.625Z,1006.27
2019-03-11T02:25:40.617Z,1006.20
2019-03-11T02:26:40.603Z,1006.25
2019-03-11T02:27:40.599Z,1006.22
2019-03-11T02:28:40.583Z,1006.11
2019-03-11T02:29:40.584Z,1006.10
2019-03-11T02:30:40.570Z,1006.06
2019-03-11T02:31:40.551Z,1006.09
2019-03-11T02:32:40.543Z,1006.08
2019-03-11T02:33:40.531Z,1006.05
2019-03-11T02:34:40.525Z,1006.12
2019-03-11T02:35:40.522Z,1006.03
2019-03-11T02:36:40.517Z,1006.02
2019-03-11T02:37:40.487Z,1006.05
2019-03-11T02:38:40.477Z,1005.96
2019-03-11T02:39:40.487Z,1005.97
2019-03-11T02:40:40.462Z,1005.91
2019-03-11T02:41:40.458Z,1005.98
2019-03-11T02:42:40.440Z,1006.00
2019-03-11T02:43:40.425Z,1005.97
2019-03-11T02:44:40.415Z,1006.02
2019-03-11T02:45:40.403Z,1006.02
2019-03-11T02:46:40.394Z,1005.99
2019-03-11T02:47:40.401Z,1006.00
2019-03-11T02:48:40.376Z,1006.01
2019-03-11T02:49:43.750Z,1006.03
2019-03-11T02:50:40.354Z,1006.04
2019-03-11T02:51:40.341Z,1006.02
2019-03-11T02:52:40.330Z,1006.02
2019-03-11T02:53:40.351Z,1006.06
2019-03-11T02:54:40.309Z,1005.98
2019-03-11T02:55:40.297Z,1006.03
2019-03-11T02:56:40.291Z,1006.07
2019-03-11T02:57:40.277Z,1006.07
2019-03-11T02:58:40.266Z,1005.99
2019-03-11T02:59:40.315Z,1006.02
2019-03-11T03:00:40.250Z,1006.01
2019-03-11T03:01:40.246Z,1006.05
2019-03-11T03:02:40.273Z,1006.02
2019-03-11T03:03:40.217Z,1006.10
2019-03-11T03:04:40.202Z,1006.05
2019-03-11T03:05:40.202Z,1006.04
2019-03-11T03:06:40.183Z,1006.10
2019-03-11T03:07:40.181Z,1006.09
2019-03-11T03:08:40.280Z,1006.07
2019-03-11T03:09:40.151Z,1006.06
2019-03-11T03:10:40.158Z,1006.07
2019-03-11T03:11:40.154Z,1006.04
2019-03-11T03:12:40.124Z,1005.97
2019-03-11T03:13:40.107Z,1006.00
2019-03-11T03:14:40.099Z,1006.02
2019-03-11T03:15:40.087Z,1006.00
2019-03-11T03:16:40.075Z,1006.02
2019-03-11T03:17:40.079Z,1006.02
2019-03-11T03:18:40.055Z,1006.03
2019-03-11T03:19:40.044Z,1006.03
2019-03-11T03:20:40.033Z,1006.06
2019-03-11T03:21:40.025Z,1006.03
2019-03-11T03:22:40.013Z,1005.99
2019-03-11T03:23:40.012Z,1006.00
2019-03-11T03:24:39.992Z,1005.93
2019-03-11T03:25:39.980Z,1005.91
2019-03-11T03:26:39.974Z,1005.99
2019-03-11T03:27:40.071Z,1005.95
2019-03-11T03:28:39.948Z,1005.94
2019-03-11T03:29:39.955Z,1005.99
2019-03-11T03:30:40.037Z,1005.95
2019-03-11T03:31:39.987Z,1005.98
2019-03-11T03:32:39.958Z,1005.95
2019-03-11T03:33:39.922Z,1005.93
2019-03-11T03:34:39.930Z,1005.92
2019-03-11T03:35:39.892Z,1005.87
2019-03-11T03:36:39.863Z,1005.89
2019-03-11T03:37:39.861Z,1005.86
2019-03-11T03:38:39.839Z,1005.85
2019-03-11T03:39:39.828Z,1005.91
2019-03-11T03:40:39.819Z,1005.93
2019-03-11T03:41:39.820Z,1005.87
2019-03-11T03:42:39.829Z,1005.86
2019-03-11T03:43:39.784Z,1005.89
2019-03-11T03:44:39.775Z,1005.93
2019-03-11T03:45:39.763Z,1005.91
2019-03-11T03:46:39.754Z,1005.87
2019-03-11T03:47:39.755Z,1005.83
2019-03-11T03:48:39.816Z,1005.87
2019-03-11T03:49:39.720Z,1005.83
2019-03-11T03:50:39.709Z,1005.90
2019-03-11T03:51:39.700Z,1005.89
2019-03-11T03:52:39.693Z,1005.88
2019-03-11T03:53:39.687Z,1005.90
2019-03-11T03:54:39.667Z,1005.84
2019-03-11T03:55:39.657Z,1005.84
2019-03-11T03:56:39.659Z,1005.80
2019-03-11T03:57:39.633Z,1005.85
2019-03-11T03:58:39.621Z,1005.82
2019-03-11T03:59:39.623Z,1005.83
2019-03-11T04:00:39.599Z,1005.84
2019-03-11T04:01:39.590Z,1005.80
2019-03-11T04:02:39.579Z,1005.81
2019-03-11T04:03:39.567Z,1005.80
2019-03-11T04:04:39.562Z,1005.80
2019-03-11T04:05:39.561Z,1005.79
2019-03-11T04:06:39.534Z,1005.89
2019-03-11T04:07:39.527Z,1005.83
2019-03-11T04:08:39.524Z,1005.79
2019-03-11T04:09:39.503Z,1005.79
2019-03-11T04:10:39.494Z,1005.83
2019-03-11T04:11:39.493Z,1005.82
2019-03-11T04:12:39.470Z,1005.77
2019-03-11T04:13:39.461Z,1005.73
2019-03-11T04:14:39.448Z,1005.76
2019-03-11T04:15:39.440Z,1005.80
2019-03-11T04:16:39.427Z,1005.81
2019-03-11T04:17:39.434Z,1005.82
2019-03-11T04:18:39.405Z,1005.88
2019-03-11T04:19:39.403Z,1005.73
2019-03-11T04:20:39.407Z,1005.80
2019-03-11T04:21:39.376Z,1005.84
2019-03-11T04:22:39.364Z,1005.88
2019-03-11T04:23:39.362Z,1005.91
2019-03-11T04:24:39.342Z,1005.91
2019-03-11T04:25:39.330Z,1005.96
2019-03-11T04:26:39.320Z,1005.98
2019-03-11T04:27:39.309Z,1005.94
2019-03-11T04:28:39.298Z,1005.91
2019-03-11T04:29:39.299Z,1005.95
2019-03-11T04:30:39.275Z,1005.96
2019-03-11T04:31:39.266Z,1005.98
2019-03-11T04:32:39.253Z,1005.94
2019-03-11T04:33:39.242Z,1006.02
2019-03-11T04:34:39.232Z,1006.06
2019-03-11T04:35:39.237Z,1006.08
2019-03-11T04:36:39.210Z,1006.09
2019-03-11T04:37:39.219Z,1006.09
2019-03-11T04:38:39.188Z,1006.09
2019-03-11T04:39:39.177Z,1006.15
2019-03-11T04:40:39.169Z,1006.17
2019-03-11T04:41:39.166Z,1006.03
2019-03-11T04:42:39.145Z,1006.10
2019-03-11T04:43:39.133Z,1006.07
2019-03-11T04:44:39.123Z,1006.14
2019-03-11T04:45:39.111Z,1006.22
2019-03-11T04:46:39.101Z,1006.18
2019-03-11T04:47:39.103Z,1006.20
2019-03-11T04:48:39.081Z,1006.25
2019-03-11T04:49:39.070Z,1006.23
2019-03-11T04:50:39.058Z,1006.11
2019-03-11T04:51:39.047Z,1006.25
2019-03-11T04:52:39.039Z,1006.18
2019-03-11T04:53:39.046Z,1006.25
2019-03-11T04:54:39.021Z,1006.27
2019-03-11T04:55:39.004Z,1006.22
2019-03-11T04:56:38.996Z,1006.24
2019-03-11T04:57:38.983Z,1006.20
2019-03-11T04:58:38.973Z,1006.28
2019-03-11T04:59:38.991Z,1006.29
2019-03-11T05:00:38.954Z,1006.27
2019-03-11T05:01:38.947Z,1006.26
2019-03-11T05:02:38.930Z,1006.28
2019-03-11T05:03:38.921Z,1006.27
2019-03-11T05:04:38.910Z,1006.27
2019-03-11T05:05:38.910Z,1006.32
2019-03-11T05:06:38.888Z,1006.32
2019-03-11T05:07:38.879Z,1006.36
2019-03-11T05:08:38.867Z,1006.35
2019-03-11T05:09:38.856Z,1006.23
2019-03-11T05:10:38.846Z,1006.30
2019-03-11T05:11:38.845Z,1006.24
2019-03-11T05:12:38.828Z,1006.20
2019-03-11T05:13:38.817Z,1006.25
2019-03-11T05:14:38.804Z,1006.24
2019-03-11T05:15:38.802Z,1006.19
2019-03-11T05:16:38.940Z,1006.18
2019-03-11T05:17:38.790Z,1006.25
2019-03-11T05:18:38.764Z,1006.31
2019-03-11T05:19:38.757Z,1006.35
2019-03-11T05:20:38.741Z,1006.46
2019-03-11T05:21:38.730Z,1006.33
2019-03-11T05:22:38.725Z,1006.25
2019-03-11T05:23:38.725Z,1006.42
2019-03-11T05:24:38.698Z,1006.50
2019-03-11T05:25:38.688Z,1006.49
2019-03-11T05:26:38.677Z,1006.40
2019-03-11T05:27:38.686Z,1006.39
2019-03-11T05:28:38.662Z,1006.47
2019-03-11T05:29:38.662Z,1006.48
2019-03-11T05:30:38.637Z,1006.46
2019-03-11T05:31:38.625Z,1006.54
2019-03-11T05:32:38.622Z,1006.42
2019-03-11T05:33:38.606Z,1006.48
2019-03-11T05:34:38.598Z,1006.40
2019-03-11T05:35:38.598Z,1006.30
2019-03-11T05:36:38.573Z,1006.28
2019-03-11T05:37:38.563Z,1006.35
2019-03-11T05:38:38.552Z,1006.41
2019-03-11T05:39:38.545Z,1006.42
2019-03-11T05:40:38.536Z,1006.57
2019-03-11T05:41:38.542Z,1006.54
2019-03-11T05:42:38.510Z,1006.59
2019-03-11T05:43:38.497Z,1006.57
2019-03-11T05:44:38.486Z,1006.54
2019-03-11T05:45:38.478Z,1006.57
2019-03-11T05:46:38.468Z,1006.59
2019-03-11T05:47:38.465Z,1006.60
2019-03-11T05:48:38.445Z,1006.54
2019-03-11T05:49:38.432Z,1006.53
2019-03-11T05:50:38.422Z,1006.52
2019-03-11T05:51:38.415Z,1006.57
2019-03-11T05:52:38.400Z,1006.55
2019-03-11T05:53:38.402Z,1006.60
2019-03-11T05:54:38.379Z,1006.48
2019-03-11T05:55:38.369Z,1006.57
2019-03-11T05:56:38.359Z,1006.59
2019-03-11T05:57:38.346Z,1006.56
2019-03-11T05:58:38.338Z,1006.55
2019-03-11T05:59:38.340Z,1006.54
2019-03-11T06:00:38.314Z,1006.59
2019-03-11T06:01:38.328Z,1006.58
2019-03-11T06:02:38.293Z,1006.55
2019-03-11T06:03:38.283Z,1006.56
2019-03-11T06:04:38.271Z,1006.57
2019-03-11T06:05:38.288Z,1006.53
2019-03-11T06:06:38.250Z,1006.59
2019-03-11T06:07:38.238Z,1006.60
2019-03-11T06:08:38.228Z,1006.50
2019-03-11T06:09:38.217Z,1006.52
2019-03-11T06:10:38.208Z,1006.51
2019-03-11T06:11:38.205Z,1006.55
2019-03-11T06:12:38.184Z,1006.63
2019-03-11T06:13:38.174Z,1006.62
2019-03-11T06:14:38.164Z,1006.63
2019-03-11T06:15:38.152Z,1006.65
2019-03-11T06:16:38.160Z,1006.66
2019-03-11T06:17:38.241Z,1006.64
2019-03-11T06:18:38.131Z,1006.68
2019-03-11T06:19:38.110Z,1006.69
2019-03-11T06:20:38.123Z,1006.69
2019-03-11T06:21:38.091Z,1006.71
2019-03-11T06:22:38.078Z,1006.70
2019-03-11T06:23:38.078Z,1006.65
2019-03-11T06:24:38.056Z,1006.66
2019-03-11T06:25:38.045Z,1006.65
2019-03-11T06:26:38.034Z,1006.67
2019-03-11T06:27:38.028Z,1006.70
2019-03-11T06:28:38.013Z,1006.68
2019-03-11T06:29:38.013Z,1006.68
2019-03-11T06:30:37.995Z,1006.70
2019-03-11T06:31:37.983Z,1006.69
2019-03-11T06:32:37.969Z,1006.71
2019-03-11T06:33:37.959Z,1006.72
2019-03-11T06:34:37.947Z,1006.72
2019-03-11T06:35:40.234Z,1006.70
2019-03-11T06:36:37.925Z,1006.69
2019-03-11T06:37:37.941Z,1006.76
2019-03-11T06:38:37.903Z,1006.78
2019-03-11T06:39:37.893Z,1006.74
2019-03-11T06:40:37.882Z,1006.71
2019-03-11T06:41:37.886Z,1006.77
2019-03-11T06:42:37.860Z,1006.77
2019-03-11T06:43:37.883Z,1006.78
2019-03-11T06:44:37.845Z,1006.81
2019-03-11T06:45:37.828Z,1006.79
2019-03-11T06:46:37.822Z,1006.86
2019-03-11T06:47:37.816Z,1006.86
2019-03-11T06:48:37.801Z,1006.81
2019-03-11T06:49:37.785Z,1006.77
2019-03-11T06:50:37.778Z,1006.82
2019-03-11T06:51:37.788Z,1006.84
2019-03-11T06:52:37.753Z,1006.76
2019-03-11T06:53:37.767Z,1006.85
2019-03-11T06:54:37.736Z,1006.85
2019-03-11T06:55:37.722Z,1006.84
2019-03-11T06:56:37.713Z,1006.94
2019-03-11T06:57:37.703Z,1006.93
2019-03-11T06:58:37.690Z,1006.85
2019-03-11T06:59:37.696Z,1006.91
2019-03-11T07:00:37.669Z,1006.91
2019-03-11T07:01:37.659Z,1006.91
2019-03-11T07:02:37.647Z,1006.94
2019-03-11T07:03:37.639Z,1006.93
2019-03-11T07:04:37.626Z,1006.99
2019-03-11T07:05:37.628Z,1007.00
2019-03-11T07:06:37.609Z,1006.98
2019-03-11T07:07:37.596Z,1007.10
2019-03-11T07:08:37.583Z,1007.01
2019-03-11T07:09:37.573Z,1007.03
2019-03-11T07:10:39.542Z,1007.04
2019-03-11T07:11:37.562Z,1007.03
2019-03-11T07:12:37.544Z,1007.08
2019-03-11T07:13:37.534Z,1007.00
2019-03-11T07:14:37.521Z,1007.06
2019-03-11T07:15:37.510Z,1007.09
2019-03-11T07:16:37.502Z,1007.13
2019-03-11T07:17:37.500Z,1007.21
2019-03-11T07:18:37.478Z,1007.12
2019-03-11T07:19:37.468Z,1007.10
2019-03-11T07:20:37.459Z,1007.11
2019-03-11T07:21:37.448Z,1007.13
2019-03-11T07:22:37.437Z,1007.15
2019-03-11T07:23:37.437Z,1007.18
2019-03-11T07:24:37.415Z,1007.19
2019-03-11T07:25:37.409Z,1007.20
2019-03-11T07:26:37.397Z,1007.20
2019-03-11T07:27:37.386Z,1007.21
2019-03-11T07:28:37.375Z,1007.22
2019-03-11T07:29:37.377Z,1007.19
2019-03-11T07:30:37.354Z,1007.27
2019-03-11T07:31:37.347Z,1007.23
2019-03-11T07:32:37.334Z,1007.29
2019-03-11T07:33:37.321Z,1007.31
2019-03-11T07:34:37.329Z,1007.25
2019-03-11T07:35:37.312Z,1007.33
2019-03-11T07:36:37.291Z,1007.26
2019-03-11T07:37:37.284Z,1007.35
2019-03-11T07:38:37.271Z,1007.24
2019-03-11T07:39:37.260Z,1007.24
2019-03-11T07:40:37.248Z,1007.29
2019-03-11T07:41:37.252Z,1007.29
2019-03-11T07:42:37.227Z,1007.25
2019-03-11T07:43:37.217Z,1007.27
2019-03-11T07:44:37.213Z,1007.30
2019-03-11T07:45:37.203Z,1007.31
2019-03-11T07:46:37.189Z,1007.35
2019-03-11T07:47:37.184Z,1007.39
2019-03-11T07:48:37.166Z,1007.32
2019-03-11T07:49:37.171Z,1007.37
2019-03-11T07:50:37.147Z,1007.32
2019-03-11T07:51:37.133Z,1007.42
2019-03-11T07:52:37.128Z,1007.50
2019-03-11T07:53:37.122Z,1007.45
2019-03-11T07:54:37.102Z,1007.53
2019-03-11T07:55:37.091Z,1007.38
2019-03-11T07:56:37.080Z,1007.41
2019-03-11T07:57:37.070Z,1007.46
2019-03-11T07:58:37.060Z,1007.44
2019-03-11T07:59:37.061Z,1007.47
2019-03-11T08:00:37.040Z,1007.46
2019-03-11T08:01:37.027Z,1007.54
2019-03-11T08:02:37.018Z,1007.61
2019-03-11T08:03:37.008Z,1007.56
2019-03-11T08:04:36.995Z,1007.58
2019-03-11T08:05:36.994Z,1007.58
2019-03-11T08:06:36.975Z,1007.51
2019-03-11T08:07:36.969Z,1007.57
2019-03-11T08:08:36.955Z,1007.54
2019-03-11T08:09:38.385Z,1007.58
2019-03-11T08:10:36.932Z,1007.54
2019-03-11T08:11:37.064Z,1007.61
2019-03-11T08:12:36.921Z,1007.59
2019-03-11T08:13:36.901Z,1007.64
2019-03-11T08:14:36.890Z,1007.59
2019-03-11T08:15:36.880Z,1007.58
2019-03-11T08:16:36.902Z,1007.61
2019-03-11T08:17:36.872Z,1007.66
2019-03-11T08:18:36.848Z,1007.71
2019-03-11T08:19:36.837Z,1007.66
2019-03-11T08:20:36.831Z,1007.71
2019-03-11T08:21:36.818Z,1007.62
2019-03-11T08:22:36.805Z,1007.68
2019-03-11T08:23:36.809Z,1007.68
2019-03-11T08:24:36.785Z,1007.76
2019-03-11T08:25:36.774Z,1007.84
2019-03-11T08:26:36.762Z,1007.76
2019-03-11T08:27:36.752Z,1007.74
2019-03-11T08:28:36.741Z,1007.77
2019-03-11T08:29:36.743Z,1007.82
2019-03-11T08:30:36.719Z,1007.75
2019-03-11T08:31:36.714Z,1007.83
2019-03-11T08:32:36.711Z,1007.86
2019-03-11T08:33:36.687Z,1007.85
2019-03-11T08:34:36.679Z,1007.85
2019-03-11T08:35:36.678Z,1007.76
2019-03-11T08:36:36.657Z,1007.81
2019-03-11T08:37:36.646Z,1007.91
2019-03-11T08:38:36.637Z,1007.91
2019-03-11T08:39:36.625Z,1007.90
2019-03-11T08:40:36.634Z,1007.92
2019-03-11T08:41:36.614Z,1008.01
2019-03-11T08:42:36.594Z,1008.08
2019-03-11T08:43:36.583Z,1008.11
2019-03-11T08:44:36.572Z,1008.04
2019-03-11T08:45:36.561Z,1008.07
2019-03-11T08:46:36.551Z,1007.99
2019-03-11T08:47:36.551Z,1007.90
2019-03-11T08:48:36.532Z,1007.84
2019-03-11T08:49:36.524Z,1007.96
2019-03-11T08:50:36.516Z,1008.01
2019-03-11T08:51:36.501Z,1007.97
2019-03-11T08:52:36.507Z,1007.99
2019-03-11T08:53:36.489Z,1008.03
2019-03-11T08:54:36.467Z,1007.94
2019-03-11T08:55:36.456Z,1008.02
2019-03-11T08:56:36.447Z,1007.98
2019-03-11T08:57:36.439Z,1008.01
2019-03-11T08:58:36.429Z,1008.03
2019-03-11T08:59:36.424Z,1008.03
2019-03-11T09:00:36.404Z,1008.06
2019-03-11T09:01:36.399Z,1008.13
2019-03-11T09:02:36.383Z,1008.12
2019-03-11T09:03:36.373Z,1008.16
2019-03-11T09:04:36.362Z,1008.14
2019-03-11T09:05:36.367Z,1008.19
2019-03-11T09:06:36.343Z,1008.03
2019-03-11T09:07:36.333Z,1008.03
2019-03-11T09:08:36.321Z,1008.17
2019-03-11T09:09:36.311Z,1008.30
2019-03-11T09:10:36.308Z,1008.22
2019-03-11T09:11:36.300Z,1008.19
2019-03-11T09:12:36.281Z,1008.31
2019-03-11T09:13:36.268Z,1008.26
2019-03-11T09:14:36.259Z,1008.30
2019-03-11T09:15:36.254Z,1008.32
2019-03-11T09:16:36.239Z,1008.31
2019-03-11T09:17:36.247Z,1008.24
2019-03-11T09:18:36.217Z,1008.33
2019-03-11T09:19:36.761Z,1008.40
2019-03-11T09:20:36.195Z,1008.34
2019-03-11T09:21:36.185Z,1008.46
2019-03-11T09:22:36.175Z,1008.45
2019-03-11T09:23:36.182Z,1008.49
2019-03-11T09:24:36.153Z,1008.43
2019-03-11T09:25:36.142Z,1008.46
2019-03-11T09:26:36.133Z,1008.42
2019-03-11T09:27:36.122Z,1008.47
2019-03-11T09:28:36.127Z,1008.52
2019-03-11T09:29:36.117Z,1008.56
2019-03-11T09:30:36.087Z,1008.53
2019-03-11T09:31:36.078Z,1008.51
2019-03-11T09:32:36.087Z,1008.55
2019-03-11T09:33:36.063Z,1008.48
2019-03-11T09:34:36.045Z,1008.47
2019-03-11T09:35:36.046Z,1008.47
2019-03-11T09:36:36.024Z,1008.53
2019-03-11T09:37:36.014Z,1008.52
2019-03-11T09:38:36.003Z,1008.58
2019-03-11T09:39:35.991Z,1008.51
2019-03-11T09:40:35.980Z,1008.58
2019-03-11T09:41:35.978Z,1008.57
2019-03-11T09:42:35.958Z,1008.60
2019-03-11T09:43:36.013Z,1008.70
2019-03-11T09:44:35.937Z,1008.69
2019-03-11T09:45:35.936Z,1008.71
2019-03-11T09:46:35.916Z,1008.71
2019-03-11T09:47:35.920Z,1008.73
2019-03-11T09:48:35.895Z,1008.66
2019-03-11T09:49:35.882Z,1008.78
2019-03-11T09:50:35.877Z,1008.71
2019-03-11T09:51:35.861Z,1008.81
2019-03-11T09:52:35.850Z,1008.74
2019-03-11T09:53:35.850Z,1008.75
2019-03-11T09:54:35.830Z,1008.70
2019-03-11T09:55:35.818Z,1008.78
2019-03-11T09:56:43.101Z,1008.74
2019-03-11T09:57:36.805Z,1008.83
2019-03-11T09:58:35.787Z,1008.85
2019-03-11T09:59:35.797Z,1008.72
2019-03-11T10:00:35.765Z,1008.78
2019-03-11T10:01:35.753Z,1008.77
2019-03-11T10:02:35.744Z,1008.79
2019-03-11T10:03:35.750Z,1008.85
2019-03-11T10:04:35.751Z,1008.76
2019-03-11T10:05:35.734Z,1008.73
2019-03-11T10:06:35.701Z,1008.79
2019-03-11T10:07:35.702Z,1008.76
2019-03-11T10:08:35.679Z,1008.83
2019-03-11T10:09:35.678Z,1008.72
2019-03-11T10:10:35.665Z,1008.73
2019-03-11T10:11:35.898Z,1008.67
2019-03-11T10:12:35.638Z,1008.72
2019-03-11T10:13:35.628Z,1008.71
2019-03-11T10:14:35.617Z,1008.75
2019-03-11T10:15:35.606Z,1008.70
2019-03-11T10:16:35.596Z,1008.74
2019-03-11T10:17:35.594Z,1008.78
2019-03-11T10:18:35.573Z,1008.79
2019-03-11T10:19:35.563Z,1008.83
2019-03-11T10:20:35.551Z,1008.83
2019-03-11T10:21:35.539Z,1008.89
2019-03-11T10:22:35.529Z,1008.79
2019-03-11T10:23:35.530Z,1008.81
2019-03-11T10:24:35.507Z,1008.97
2019-03-11T10:25:35.498Z,1008.81
2019-03-11T10:26:35.507Z,1008.88
2019-03-11T10:27:35.514Z,1008.92
2019-03-11T10:28:35.463Z,1008.92
2019-03-11T10:29:35.464Z,1008.86
2019-03-11T10:30:35.440Z,1008.86
2019-03-11T10:31:35.431Z,1008.83
2019-03-11T10:32:35.419Z,1008.74
2019-03-11T10:33:35.408Z,1008.83
2019-03-11T10:34:35.397Z,1008.80
2019-03-11T10:35:35.397Z,1008.80
2019-03-11T10:36:35.400Z,1008.72
2019-03-11T10:37:35.367Z,1008.76
2019-03-11T10:38:35.356Z,1008.75
2019-03-11T10:39:35.344Z,1008.78
2019-03-11T10:40:35.332Z,1008.73
2019-03-11T10:41:35.335Z,1008.61
2019-03-11T10:42:35.312Z,1008.75
2019-03-11T10:43:35.299Z,1008.70
2019-03-11T10:44:35.294Z,1008.75
2019-03-11T10:45:35.279Z,1008.79
2019-03-11T10:46:35.267Z,1008.73
2019-03-11T10:47:35.266Z,1008.76
2019-03-11T10:48:37.574Z,1008.71
2019-03-11T10:49:35.235Z,1008.76
2019-03-11T10:50:35.225Z,1008.79
2019-03-11T10:51:35.215Z,1008.76
2019-03-11T10:52:35.204Z,1008.75
2019-03-11T10:53:35.204Z,1008.79
2019-03-11T10:54:35.185Z,1008.74
2019-03-11T10:55:35.171Z,1008.75
2019-03-11T10:56:35.164Z,1008.76
2019-03-11T10:57:35.151Z,1008.75
2019-03-11T10:58:35.139Z,1008.71
2019-03-11T10:59:35.139Z,1008.72
2019-03-11T11:00:35.118Z,1008.73
2019-03-11T11:01:35.109Z,1008.76
2019-03-11T11:02:35.096Z,1008.72
2019-03-11T11:03:35.084Z,1008.71
2019-03-11T11:04:35.074Z,1008.77
2019-03-11T11:05:35.078Z,1008.78
2019-03-11T11:06:35.053Z,1008.67
2019-03-11T11:07:35.049Z,1008.74
2019-03-11T11:08:35.031Z,1008.68
2019-03-11T11:09:35.023Z,1008.73
2019-03-11T11:10:35.008Z,1008.66
2019-03-11T11:11:36.400Z,1008.63
2019-03-11T11:12:34.987Z,1008.68
2019-03-11T11:13:34.976Z,1008.71
2019-03-11T11:14:34.963Z,1008.73
2019-03-11T11:15:34.959Z,1008.66
2019-03-11T11:16:34.942Z,1008.76
2019-03-11T11:17:34.945Z,1008.89
2019-03-11T11:18:34.920Z,1008.92
2019-03-11T11:19:34.912Z,1008.89
2019-03-11T11:20:34.898Z,1008.95
2019-03-11T11:21:34.897Z,1009.02
2019-03-11T11:22:34.882Z,1008.96
2019-03-11T11:23:34.879Z,1009.01
2019-03-11T11:24:34.855Z,1009.14
2019-03-11T11:25:34.846Z,1008.98
2019-03-11T11:26:34.832Z,1009.05
2019-03-11T11:27:36.585Z,1009.05
2019-03-11T11:28:34.812Z,1009.09
2019-03-11T11:29:34.813Z,1009.10
2019-03-11T11:30:34.795Z,1009.22
2019-03-11T11:31:34.779Z,1009.11
2019-03-11T11:32:34.769Z,1009.19
2019-03-11T11:33:34.757Z,1009.14
2019-03-11T11:34:34.747Z,1009.16
2019-03-11T11:35:34.754Z,1009.19
2019-03-11T11:36:34.731Z,1009.13
2019-03-11T11:37:34.716Z,1009.16
2019-03-11T11:38:34.708Z,1009.23
2019-03-11T11:39:34.694Z,1009.18
2019-03-11T11:40:34.682Z,1009.28
2019-03-11T11:41:34.685Z,1009.20
2019-03-11T11:42:34.661Z,1009.24
2019-03-11T11:43:34.650Z,1009.15
2019-03-11T11:44:34.641Z,1009.17
2019-03-11T11:45:34.628Z,1009.09
2019-03-11T11:46:34.621Z,1009.20
2019-03-11T11:47:34.616Z,1009.21
2019-03-11T11:48:34.596Z,1009.28
2019-03-11T11:49:34.585Z,1009.30
2019-03-11T11:50:34.572Z,1009.42
2019-03-11T11:51:34.563Z,1009.31
2019-03-11T11:52:34.552Z,1009.37
2019-03-11T11:53:34.556Z,1009.37
2019-03-11T11:54:34.533Z,1009.39
2019-03-11T11:55:34.519Z,1009.49
2019-03-11T11:56:34.508Z,1009.54
2019-03-11T11:57:34.501Z,1009.46
2019-03-11T11:58:34.495Z,1009.53
2019-03-11T11:59:34.493Z,1009.57
2019-03-11T12:00:34.468Z,1009.60
2019-03-11T12:01:34.456Z,1009.57
2019-03-11T12:02:34.449Z,1009.46
2019-03-11T12:03:34.489Z,1009.57
2019-03-11T12:04:34.423Z,1009.60
2019-03-11T12:05:34.424Z,1009.56